createdAt,value
2022-08-26T00:01:56.737Z,38.50
2022-08-26T00:04:25.744Z,48.03
2022-08-26T00:06:54.983Z,50.50
2022-08-26T00:09:24.889Z,47.37
2022-08-26T00:11:53.953Z,40.90
2022-08-26T00:14:21.604Z,38.40
2022-08-26T00:16:49.118Z,47.70
2022-08-26T00:19:19.368Z,39.77
2022-08-26T00:21:49.639Z,36.23
2022-08-26T00:24:19.396Z,49.13
2022-08-26T00:26:46.851Z,42.87
2022-08-26T00:29:14.962Z,43.33
2022-08-26T00:31:42.472Z,38.93
2022-08-26T00:34:13.052Z,48.00
2022-08-26T00:36:41.101Z,40.80
2022-08-26T00:39:08.713Z,45.90
2022-08-26T00:41:39.684Z,42.70
2022-08-26T00:44:07.359Z,45.27
2022-08-26T00:46:39.980Z,52.60
2022-08-26T00:49:20.007Z,46.47
2022-08-26T00:51:54.329Z,42.63
2022-08-26T00:54:26.992Z,40.20
2022-08-26T00:57:22.527Z,42.97
2022-08-26T00:59:54.783Z,43.13
2022-08-26T01:02:22.130Z,42.70
2022-08-26T01:04:55.695Z,46.47
2022-08-26T01:07:25.738Z,46.70
2022-08-26T01:09:53.022Z,44.57
2022-08-26T01:12:22.222Z,42.10
2022-08-26T01:14:50.112Z,39.60
2022-08-26T01:17:17.484Z,48.93
2022-08-26T01:19:48.856Z,45.07
2022-08-26T01:22:28.787Z,46.17
2022-08-26T01:25:00.855Z,46.60
2022-08-26T01:27:32.926Z,42.50
2022-08-26T01:30:02.272Z,37.50
2022-08-26T01:32:31.750Z,35.37
2022-08-26T01:34:59.243Z,37.23
2022-08-26T01:37:36.550Z,41.90
2022-08-26T01:40:05.688Z,46.57
2022-08-26T01:42:34.403Z,44.40
2022-08-26T01:45:07.023Z,47.20
2022-08-26T01:47:36.984Z,42.03
2022-08-26T01:50:09.342Z,45.00
2022-08-26T01:52:41.316Z,50.03
2022-08-26T01:55:11.636Z,38.10
2022-08-26T01:57:39.380Z,44.63
2022-08-26T02:00:10.591Z,46.73
2022-08-26T02:02:47.901Z,42.93
2022-08-26T02:05:19.811Z,40.40
2022-08-26T02:07:48.878Z,38.80
2022-08-26T02:10:16.368Z,39.73
2022-08-26T02:12:43.596Z,40.40
2022-08-26T02:15:12.537Z,40.10
2022-08-26T02:17:43.901Z,31.13
2022-08-26T02:20:14.970Z,47.93
2022-08-26T02:22:42.490Z,53.70
2022-08-26T02:25:49.493Z,41.53
2022-08-26T02:28:17.669Z,40.13
2022-08-26T02:30:47.378Z,38.83
2022-08-26T02:33:14.825Z,49.80
2022-08-26T02:35:42.014Z,47.23
2022-08-26T02:38:11.123Z,40.17
2022-08-26T02:40:41.095Z,43.90
2022-08-26T02:43:09.747Z,43.93
2022-08-26T02:45:37.122Z,46.83
2022-08-26T02:48:10.265Z,36.37
2022-08-26T02:50:38.047Z,43.93
2022-08-26T02:53:07.468Z,42.83
2022-08-26T02:55:35.079Z,37.27
2022-08-26T02:58:02.327Z,50.87
2022-08-26T03:00:31.512Z,64.10
2022-08-26T03:02:59.293Z,45.40
2022-08-26T03:05:26.610Z,41.27
2022-08-26T03:07:53.960Z,44.27
2022-08-26T03:10:22.078Z,47.07
2022-08-26T03:12:49.207Z,50.97
2022-08-26T03:15:20.256Z,47.77
2022-08-26T03:17:49.178Z,49.83
2022-08-26T03:20:18.433Z,47.03
2022-08-26T03:22:46.044Z,40.07
2022-08-26T03:25:15.782Z,40.33
2022-08-26T03:27:43.234Z,41.97
2022-08-26T03:30:31.255Z,51.13
2022-08-26T03:32:58.592Z,51.10
2022-08-26T03:35:25.859Z,46.97
2022-08-26T03:37:53.876Z,47.87
2022-08-26T03:40:21.769Z,47.30
2022-08-26T03:42:50.219Z,44.17
2022-08-26T03:45:18.198Z,44.37
2022-08-26T03:47:46.688Z,48.50
2022-08-26T03:50:17.545Z,44.10
2022-08-26T03:52:51.651Z,39.97
2022-08-26T03:55:20.129Z,38.53
2022-08-26T03:57:51.763Z,47.07
2022-08-26T04:00:19.762Z,46.60
2022-08-26T04:02:48.907Z,42.73
2022-08-26T04:05:18.111Z,46.97
2022-08-26T04:07:46.436Z,44.63
2022-08-26T04:10:20.099Z,47.97
2022-08-26T04:12:47.675Z,48.97
2022-08-26T04:15:15.937Z,38.63
2022-08-26T04:17:44.856Z,39.90
2022-08-26T04:20:18.031Z,41.90
2022-08-26T04:22:45.841Z,51.60
2022-08-26T04:25:13.106Z,35.93
2022-08-26T04:27:40.252Z,38.57
2022-08-26T04:30:09.080Z,40.83
2022-08-26T04:32:37.367Z,55.07
2022-08-26T04:35:06.167Z,43.10
2022-08-26T04:37:33.597Z,46.30
2022-08-26T04:40:00.738Z,37.37
2022-08-26T04:42:29.366Z,39.30
2022-08-26T04:44:56.369Z,37.50
2022-08-26T04:47:23.337Z,46.00
2022-08-26T04:49:51.772Z,40.90
2022-08-26T04:52:19.216Z,37.73
2022-08-26T04:54:46.164Z,39.90
2022-08-26T04:57:13.336Z,48.43
2022-08-26T04:59:40.307Z,37.50
2022-08-26T05:02:07.854Z,54.40
2022-08-26T05:04:36.184Z,34.63
2022-08-26T05:07:03.243Z,48.13
2022-08-26T05:09:30.619Z,36.03
2022-08-26T05:11:57.647Z,39.67
2022-08-26T05:14:24.690Z,43.03
2022-08-26T05:16:52.329Z,36.33
2022-08-26T05:19:19.793Z,44.93
2022-08-26T05:21:48.742Z,40.03
2022-08-26T05:24:16.763Z,37.50
2022-08-26T05:26:44.579Z,38.03
2022-08-26T05:29:12.300Z,42.43
2022-08-26T05:31:39.564Z,36.90
2022-08-26T05:34:08.453Z,33.93
2022-08-26T05:36:36.423Z,45.93
2022-08-26T05:39:06.121Z,36.77
2022-08-26T05:41:36.760Z,47.00
2022-08-26T05:44:08.654Z,58.87
2022-08-26T05:46:36.993Z,47.80
2022-08-26T05:49:05.712Z,53.17
2022-08-26T05:51:33.467Z,46.63
2022-08-26T05:54:03.605Z,38.97
2022-08-26T05:56:31.043Z,47.87
2022-08-26T05:58:59.777Z,64.33
2022-08-26T06:01:28.752Z,44.80
2022-08-26T06:04:01.308Z,47.40
2022-08-26T06:06:31.779Z,60.10
2022-08-26T06:09:00.924Z,44.33
2022-08-26T06:11:30.538Z,44.20
2022-08-26T06:14:03.614Z,49.50
2022-08-26T06:16:38.629Z,34.63
2022-08-26T06:19:11.456Z,47.17
2022-08-26T06:21:41.426Z,47.03
2022-08-26T06:24:31.685Z,40.13
2022-08-26T06:27:08.357Z,37.50
2022-08-26T06:29:36.777Z,37.00
2022-08-26T06:32:05.445Z,43.00
2022-08-26T06:34:33.913Z,38.20
2022-08-26T06:37:06.382Z,31.00
2022-08-26T06:39:34.306Z,34.40
2022-08-26T06:42:03.049Z,36.97
2022-08-26T06:44:34.057Z,35.10
2022-08-26T06:47:01.076Z,40.30
2022-08-26T06:49:28.087Z,38.00
2022-08-26T06:51:58.582Z,37.20
2022-08-26T06:54:27.345Z,29.33
2022-08-26T06:56:56.932Z,34.07
2022-08-26T06:59:24.329Z,44.77
2022-08-26T07:01:52.418Z,35.33
2022-08-26T07:04:22.098Z,46.93
2022-08-26T07:06:52.623Z,39.40
2022-08-26T07:09:22.012Z,48.20
2022-08-26T07:11:49.527Z,31.27
2022-08-26T07:14:19.315Z,39.13
2022-08-26T07:16:48.532Z,29.80
2022-08-26T07:19:17.526Z,32.00
2022-08-26T07:21:55.582Z,31.80
2022-08-26T07:24:22.727Z,32.80
2022-08-26T07:26:50.347Z,33.30
2022-08-26T07:29:18.661Z,31.57
2022-08-26T07:31:46.448Z,44.53
2022-08-26T07:34:13.976Z,40.30
2022-08-26T07:36:41.793Z,50.43
2022-08-26T07:39:09.006Z,38.33
2022-08-26T07:41:36.663Z,37.17
2022-08-26T07:44:04.308Z,40.63
2022-08-26T07:46:31.848Z,35.77
2022-08-26T07:48:59.310Z,26.87
2022-08-26T07:51:28.062Z,30.27
2022-08-26T07:53:56.083Z,30.27
2022-08-26T07:56:23.695Z,38.77
2022-08-26T07:58:53.217Z,33.30
2022-08-26T08:01:23.564Z,31.03
2022-08-26T08:03:51.918Z,33.03
2022-08-26T08:06:27.249Z,30.33
2022-08-26T08:08:56.357Z,39.77
2022-08-26T08:11:26.410Z,29.40
2022-08-26T08:13:56.358Z,41.53
2022-08-26T08:16:28.309Z,35.03
2022-08-26T08:18:59.816Z,22.73
2022-08-26T08:21:28.213Z,36.13
2022-08-26T08:23:57.515Z,39.47
2022-08-26T08:26:25.939Z,36.23
2022-08-26T08:28:57.403Z,43.83
2022-08-26T08:34:15.104Z,28.07
2022-08-26T08:36:42.399Z,31.07
2022-08-26T08:39:09.743Z,32.10
2022-08-26T08:41:40.313Z,28.20
2022-08-26T08:44:20.211Z,36.67
2022-08-26T08:46:51.719Z,33.77
2022-08-26T08:49:18.999Z,32.70
2022-08-26T08:51:59.657Z,36.90
2022-08-26T08:54:26.986Z,28.27
2022-08-26T08:57:07.770Z,24.67
2022-08-26T08:59:41.264Z,49.53
2022-08-26T09:02:18.552Z,42.43
2022-08-26T09:05:15.145Z,32.47
2022-08-26T09:08:09.607Z,32.03
2022-08-26T09:10:39.850Z,31.77
2022-08-26T09:13:25.184Z,30.13
2022-08-26T09:16:34.703Z,36.07
2022-08-26T09:19:27.584Z,48.10
2022-08-26T09:21:59.856Z,30.13
2022-08-26T09:24:29.529Z,22.57
2022-08-26T09:26:59.039Z,31.83
2022-08-26T09:29:34.372Z,36.90
2022-08-26T09:32:35.230Z,38.47
2022-08-26T09:35:11.050Z,29.27
2022-08-26T09:37:40.832Z,33.33
2022-08-26T09:40:17.542Z,35.90
2022-08-26T09:42:45.039Z,33.27
2022-08-26T09:45:13.703Z,29.60
2022-08-26T09:47:53.514Z,35.90
2022-08-26T09:50:28.664Z,33.50
2022-08-26T09:53:16.233Z,24.73
2022-08-26T09:55:49.214Z,37.07
2022-08-26T09:58:38.190Z,37.57
2022-08-26T10:01:08.337Z,32.73
2022-08-26T10:03:38.252Z,37.00
2022-08-26T10:06:21.626Z,32.87
2022-08-26T10:09:00.069Z,39.83
2022-08-26T10:11:53.943Z,38.73
2022-08-26T10:14:35.414Z,34.93
2022-08-26T10:17:14.894Z,31.57
2022-08-26T10:19:56.591Z,29.97
2022-08-26T10:22:37.296Z,35.80
2022-08-26T10:25:09.141Z,32.90
2022-08-26T10:27:51.132Z,22.40
2022-08-26T10:30:23.121Z,31.57
2022-08-26T10:33:00.797Z,42.30
2022-08-26T10:35:29.113Z,33.27
2022-08-26T10:38:01.722Z,25.93
2022-08-26T10:40:43.183Z,33.37
2022-08-26T10:43:19.122Z,27.97
2022-08-26T10:45:52.888Z,21.37
2022-08-26T10:48:39.138Z,25.47
2022-08-26T10:51:06.876Z,28.43
2022-08-26T10:53:56.813Z,31.87
2022-08-26T10:56:48.442Z,36.33
2022-08-26T10:59:21.711Z,35.00
2022-08-26T11:02:07.140Z,31.13
2022-08-26T11:04:48.412Z,25.53
2022-08-26T11:07:37.305Z,25.10
2022-08-26T11:10:06.821Z,19.23
2022-08-26T11:12:37.351Z,28.50
2022-08-26T11:15:08.330Z,24.60
2022-08-26T11:17:45.115Z,25.53
2022-08-26T11:20:41.834Z,27.40
2022-08-26T11:23:24.181Z,24.67
2022-08-26T11:26:06.661Z,33.03
2022-08-26T11:28:48.307Z,24.70
2022-08-26T11:31:24.530Z,22.77
2022-08-26T11:33:52.091Z,21.80
2022-08-26T11:36:40.107Z,32.63
2022-08-26T11:39:18.989Z,29.60
2022-08-26T11:41:49.430Z,25.90
2022-08-26T11:44:23.248Z,32.97
2022-08-26T11:46:59.724Z,23.13
2022-08-26T11:49:28.844Z,26.37
2022-08-26T11:52:21.093Z,23.03
2022-08-26T11:55:02.207Z,29.83
2022-08-26T11:57:31.755Z,27.30
2022-08-26T11:59:59.888Z,30.53
2022-08-26T12:02:28.671Z,20.37
2022-08-26T12:04:56.929Z,16.80
2022-08-26T12:07:29.434Z,17.30
2022-08-26T12:10:02.048Z,17.13
2022-08-26T12:12:35.032Z,14.00
2022-08-26T12:15:22.736Z,9.93
2022-08-26T12:17:54.565Z,18.87
2022-08-26T12:20:48.193Z,14.03
2022-08-26T12:23:26.918Z,15.47
2022-08-26T12:26:18.363Z,10.53
2022-08-26T12:28:58.074Z,13.13
2022-08-26T12:31:35.886Z,9.30
2022-08-26T12:34:06.020Z,10.90
2022-08-26T12:36:52.999Z,12.00
2022-08-26T12:39:33.413Z,12.10
2022-08-26T12:42:02.203Z,12.33
2022-08-26T12:44:53.216Z,14.23
2022-08-26T12:47:42.529Z,9.40
2022-08-26T12:50:35.116Z,13.47
2022-08-26T12:53:13.622Z,14.50
2022-08-26T12:55:48.104Z,6.50
2022-08-26T12:58:23.607Z,9.17
2022-08-26T13:01:18.605Z,6.87
2022-08-26T13:03:46.800Z,11.87
2022-08-26T13:06:23.999Z,7.80
2022-08-26T13:09:11.218Z,6.80
2022-08-26T13:11:41.207Z,7.10
2022-08-26T13:14:11.531Z,4.60
2022-08-26T13:16:39.962Z,6.77
2022-08-26T13:19:10.137Z,7.70
2022-08-26T13:21:49.761Z,5.53
2022-08-26T13:24:25.183Z,3.53
2022-08-26T13:26:52.286Z,6.20
2022-08-26T13:29:19.518Z,9.87
2022-08-26T13:31:48.113Z,6.30
2022-08-26T13:34:19.585Z,11.43
2022-08-26T13:36:50.607Z,7.90
2022-08-26T13:39:18.304Z,10.07
2022-08-26T13:41:46.197Z,6.80
2022-08-26T13:44:13.591Z,6.00
2022-08-26T13:46:41.057Z,7.47
2022-08-26T13:49:08.489Z,8.50
2022-08-26T13:51:39.240Z,7.97
2022-08-26T13:54:07.237Z,7.70
2022-08-26T13:56:35.528Z,7.60
2022-08-26T13:59:03.672Z,10.70
2022-08-26T14:01:32.166Z,7.17
2022-08-26T14:03:59.311Z,9.67
2022-08-26T14:06:26.460Z,10.30
2022-08-26T14:08:53.493Z,12.80
2022-08-26T14:11:21.497Z,17.63
2022-08-26T14:13:48.643Z,16.70
2022-08-26T14:16:28.682Z,28.70
2022-08-26T14:18:55.791Z,15.70
2022-08-26T14:21:23.995Z,9.80
2022-08-26T14:23:51.027Z,10.30
2022-08-26T14:26:28.658Z,16.93
2022-08-26T15:24:00.179Z,3.83
2022-08-26T15:26:29.834Z,5.00
2022-08-26T15:28:58.384Z,6.47
2022-08-26T15:31:31.487Z,7.30
2022-08-26T15:34:07.548Z,6.53
2022-08-26T15:36:37.739Z,5.67
2022-08-26T15:39:07.330Z,7.50
2022-08-26T15:41:35.048Z,6.00
2022-08-26T15:44:03.821Z,4.33
2022-08-26T15:46:32.103Z,7.83
2022-08-26T15:49:00.148Z,9.60
2022-08-26T15:51:31.894Z,10.13
2022-08-26T15:53:59.895Z,3.27
2022-08-26T15:56:31.186Z,8.93
2022-08-26T15:59:00.409Z,8.83
2022-08-26T16:01:28.822Z,11.13
2022-08-26T16:03:56.849Z,12.33
2022-08-26T16:06:31.768Z,8.50
2022-08-26T16:08:58.941Z,12.10
2022-08-26T16:11:27.437Z,12.90
2022-08-26T16:13:55.146Z,14.13
2022-08-26T16:16:22.547Z,15.80
2022-08-26T16:18:49.982Z,8.13
2022-08-26T16:21:25.029Z,15.33
2022-08-26T16:23:52.498Z,16.10
2022-08-26T16:26:27.255Z,15.80
2022-08-26T16:28:54.888Z,15.43
2022-08-26T16:31:22.389Z,12.00
2022-08-26T16:33:49.729Z,10.90
2022-08-26T16:36:19.140Z,15.70
2022-08-26T16:38:55.175Z,18.60
2022-08-26T16:41:25.165Z,15.20
2022-08-26T16:43:52.961Z,12.03
2022-08-26T16:46:22.220Z,15.53
2022-08-26T16:48:49.557Z,19.70
2022-08-26T16:51:24.382Z,16.57
2022-08-26T16:53:52.460Z,25.10
2022-08-26T16:56:33.626Z,13.17
2022-08-26T16:59:07.002Z,14.50
2022-08-26T17:01:34.618Z,13.00
2022-08-26T17:04:01.773Z,19.93
2022-08-26T17:06:29.786Z,15.17
2022-08-26T17:08:57.085Z,12.10
2022-08-26T17:11:24.403Z,14.23
2022-08-26T17:13:51.555Z,17.60
2022-08-26T17:16:20.429Z,10.13
2022-08-26T17:18:49.394Z,11.60
2022-08-26T17:21:16.974Z,15.03
2022-08-26T17:23:44.688Z,20.00
2022-08-26T17:26:12.617Z,13.83
2022-08-26T17:28:39.984Z,45.60
2022-08-26T17:31:09.446Z,10.57
2022-08-26T17:33:37.777Z,9.17
2022-08-26T17:36:07.080Z,10.03
2022-08-26T17:38:35.047Z,10.10
2022-08-26T17:41:02.143Z,13.90
2022-08-26T17:43:29.303Z,10.60
2022-08-26T17:46:07.223Z,11.13
2022-08-26T17:48:36.846Z,15.50
2022-08-26T17:51:13.749Z,11.13
2022-08-26T17:53:41.849Z,13.67
2022-08-26T17:56:13.063Z,13.80
2022-08-26T17:58:40.865Z,20.90
2022-08-26T18:01:15.550Z,15.27
2022-08-26T18:03:42.938Z,16.60
2022-08-26T18:06:12.242Z,12.60
2022-08-26T18:08:40.949Z,12.27
2022-08-26T18:11:20.714Z,13.77
2022-08-26T18:13:48.221Z,17.53
2022-08-26T18:16:18.778Z,13.33
2022-08-26T18:18:48.733Z,16.73
2022-08-26T18:21:26.525Z,10.77
2022-08-26T18:23:55.077Z,16.33
2022-08-26T18:26:36.319Z,10.57
2022-08-26T18:29:04.789Z,13.53
2022-08-26T18:31:32.454Z,14.60
2022-08-26T18:34:01.648Z,11.03
2022-08-26T18:36:34.684Z,14.40
2022-08-26T18:39:04.800Z,13.53
2022-08-26T18:41:38.405Z,16.83
2022-08-26T18:44:05.471Z,15.37
2022-08-26T18:46:32.706Z,16.13
2022-08-26T18:48:59.979Z,10.80
2022-08-26T18:51:31.047Z,17.77
2022-08-26T18:54:00.538Z,18.27
2022-08-26T18:56:28.653Z,22.03
2022-08-26T18:58:55.780Z,15.97
2022-08-26T19:01:27.213Z,23.97
2022-08-26T19:03:59.441Z,25.70
2022-08-26T19:06:32.777Z,19.17
2022-08-26T19:09:00.700Z,24.00
2022-08-26T19:11:31.821Z,40.17
2022-08-26T19:14:06.581Z,20.40
2022-08-26T19:16:34.251Z,16.27
2022-08-26T19:19:02.071Z,18.33
2022-08-26T19:21:30.073Z,14.00
2022-08-26T19:24:00.313Z,25.20
2022-08-26T19:26:28.730Z,19.63
2022-08-26T19:28:56.699Z,18.90
2022-08-26T19:31:24.057Z,18.60
2022-08-26T19:33:51.301Z,17.13
2022-08-26T19:36:22.519Z,17.90
2022-08-26T19:38:51.034Z,20.53
2022-08-26T19:41:31.663Z,20.93
2022-08-26T19:44:35.201Z,26.77
2022-08-26T19:47:03.746Z,22.50
2022-08-26T19:49:32.029Z,22.50
2022-08-26T19:51:59.461Z,52.43
2022-08-26T19:54:27.185Z,22.73
2022-08-26T19:56:54.627Z,21.27
2022-08-26T19:59:21.802Z,21.10
2022-08-26T20:01:55.181Z,27.03
2022-08-26T20:04:31.145Z,21.77
2022-08-26T20:07:00.690Z,22.00
2022-08-26T20:09:34.130Z,19.93
2022-08-26T20:12:03.057Z,17.40
2022-08-26T20:14:30.634Z,17.43
2022-08-26T20:16:58.225Z,21.23
2022-08-26T20:19:44.158Z,17.80
2022-08-26T20:22:12.900Z,16.07
2022-08-26T20:24:40.437Z,16.43
2022-08-26T20:27:08.206Z,12.57
2022-08-26T20:29:36.667Z,31.77
2022-08-26T20:32:06.105Z,26.87
2022-08-26T20:34:34.899Z,22.17
2022-08-26T20:37:02.784Z,26.07
2022-08-26T20:39:30.080Z,31.00
2022-08-26T20:41:58.113Z,26.53
2022-08-26T20:44:25.796Z,27.60
2022-08-26T20:46:53.040Z,17.93
2022-08-26T20:49:20.189Z,17.93
2022-08-26T20:51:52.510Z,22.30
2022-08-26T20:54:26.201Z,13.60
2022-08-26T20:56:57.272Z,17.93
2022-08-26T20:59:25.375Z,15.07
2022-08-26T21:01:53.188Z,18.73
2022-08-26T21:04:23.553Z,21.97
2022-08-26T21:06:52.671Z,17.83
2022-08-26T21:09:23.008Z,29.03
2022-08-26T21:11:51.498Z,16.60
2022-08-26T21:14:20.670Z,15.00
2022-08-26T21:16:47.896Z,16.73
2022-08-26T21:19:18.333Z,14.53
2022-08-26T21:21:47.858Z,16.13
2022-08-26T21:24:15.343Z,14.57
2022-08-26T21:26:42.799Z,20.27
2022-08-26T21:29:10.159Z,17.87
2022-08-26T21:31:43.531Z,19.57
2022-08-26T21:34:14.229Z,14.00
2022-08-26T21:36:41.960Z,16.27
2022-08-26T21:39:12.067Z,16.00
2022-08-26T21:41:41.523Z,13.80
2022-08-26T21:44:10.162Z,18.10
2022-08-26T21:46:37.422Z,18.60
2022-08-26T21:49:08.861Z,18.47
2022-08-26T21:51:46.052Z,16.50
2022-08-26T21:54:14.073Z,17.30
2022-08-26T21:56:47.132Z,14.23
2022-08-26T21:59:17.927Z,15.73
2022-08-26T22:01:45.795Z,13.67
2022-08-26T22:04:13.595Z,17.60
2022-08-26T22:06:47.949Z,15.03
2022-08-26T22:09:19.575Z,15.63
2022-08-26T22:11:47.602Z,11.77
2022-08-26T22:14:16.162Z,16.63
2022-08-26T22:16:46.840Z,14.00
2022-08-26T22:19:20.116Z,14.97
2022-08-26T22:21:51.955Z,15.63
2022-08-26T22:24:22.474Z,15.37
2022-08-26T22:26:50.065Z,13.73
2022-08-26T22:29:18.838Z,24.93
2022-08-26T22:31:46.526Z,28.53
2022-08-26T22:34:17.246Z,30.03
2022-08-26T22:36:48.953Z,22.80
2022-08-26T22:39:21.213Z,18.17
2022-08-26T22:41:49.643Z,21.03
2022-08-26T22:44:18.371Z,14.63
2022-08-26T22:46:46.995Z,13.00
2022-08-26T22:49:18.000Z,14.40
2022-08-26T22:51:46.637Z,12.50
2022-08-26T22:54:15.194Z,14.83
2022-08-26T22:56:44.683Z,17.00
2022-08-26T22:59:13.055Z,12.80
2022-08-26T23:01:42.688Z,10.90
2022-08-26T23:04:11.096Z,15.63
2022-08-26T23:06:43.072Z,18.63
2022-08-26T23:09:11.158Z,13.50
2022-08-26T23:11:39.865Z,15.30
2022-08-26T23:14:10.193Z,13.70
2022-08-26T23:16:41.551Z,14.17
2022-08-26T23:19:12.952Z,14.60
2022-08-26T23:21:40.403Z,17.50
2022-08-26T23:24:08.564Z,20.07
2022-08-26T23:26:36.910Z,21.23
2022-08-26T23:29:06.524Z,23.23
2022-08-26T23:31:34.035Z,14.80
2022-08-26T23:34:19.665Z,14.20
2022-08-26T23:36:47.374Z,18.53
2022-08-26T23:39:15.394Z,17.10
2022-08-26T23:41:42.843Z,21.37
2022-08-26T23:44:13.160Z,14.00
2022-08-26T23:46:40.353Z,16.00
2022-08-26T23:49:07.419Z,14.70
2022-08-26T23:51:53.242Z,14.90
2022-08-26T23:54:20.569Z,13.90
2022-08-26T23:56:47.695Z,13.53
2022-08-26T23:59:15.597Z,22.57
